createdAt,value
2022-10-07T00:04:53.536Z,11.29
2022-10-07T00:09:54.892Z,11.07
2022-10-07T00:14:56.276Z,11.18
2022-10-07T00:19:57.628Z,11.24
2022-10-07T00:24:58.985Z,11.05
2022-10-07T00:30:00.352Z,10.99
2022-10-07T00:35:01.679Z,11.13
2022-10-07T00:40:03.324Z,11.17
2022-10-07T00:45:05.065Z,11.08
2022-10-07T00:50:27.904Z,11.07
2022-10-07T00:55:31.604Z,11.10
2022-10-07T01:00:32.969Z,10.96
2022-10-07T01:05:34.334Z,10.89
2022-10-07T01:10:57.108Z,11.01
2022-10-07T01:16:28.459Z,10.97
2022-10-07T01:22:14.417Z,10.87
2022-10-07T01:27:19.185Z,10.64
2022-10-07T01:32:38.821Z,10.78
2022-10-07T01:37:47.010Z,10.89
2022-10-07T01:42:50.098Z,10.83
2022-10-07T01:47:51.930Z,10.67
2022-10-07T01:53:13.523Z,10.72
2022-10-07T01:58:33.274Z,10.47
2022-10-07T02:03:52.171Z,10.82
2022-10-07T02:08:56.474Z,10.15
2022-10-07T02:14:23.982Z,10.46
2022-10-07T02:19:32.078Z,10.76
2022-10-07T02:24:35.672Z,10.64
2022-10-07T02:29:39.550Z,10.44
2022-10-07T02:34:42.703Z,10.48
2022-10-07T02:39:44.798Z,10.56
2022-10-07T02:44:49.782Z,10.37
2022-10-07T02:49:53.486Z,10.19
2022-10-07T02:54:58.934Z,10.50
2022-10-07T03:00:01.544Z,10.63
2022-10-07T03:05:03.438Z,10.41
2022-10-07T03:10:07.635Z,10.08
2022-10-07T03:15:09.431Z,10.25
2022-10-07T03:20:10.814Z,9.92
2022-10-07T03:25:12.927Z,10.45
2022-10-07T03:30:14.423Z,9.89
2022-10-07T03:35:16.898Z,10.27
2022-10-07T03:40:18.271Z,10.42
2022-10-07T03:45:19.646Z,10.25
2022-10-07T03:50:21.018Z,10.15
2022-10-07T03:55:22.410Z,9.99
2022-10-07T04:00:26.464Z,10.00
2022-10-07T04:05:28.010Z,10.25
2022-10-07T04:10:29.404Z,10.25
2022-10-07T04:15:30.763Z,10.38
2022-10-07T04:20:32.153Z,10.45
2022-10-07T04:25:33.526Z,9.87
2022-10-07T04:30:39.533Z,9.90
2022-10-07T04:35:40.903Z,10.07
2022-10-07T04:40:44.671Z,9.89
2022-10-07T04:45:47.727Z,10.09
2022-10-07T04:50:49.402Z,10.32
2022-10-07T04:55:51.100Z,9.88
2022-10-07T05:00:53.680Z,9.81
2022-10-07T05:05:57.007Z,10.16
2022-10-07T05:11:00.471Z,10.06
2022-10-07T05:16:02.749Z,9.64
2022-10-07T05:21:06.219Z,9.31
2022-10-07T05:26:07.679Z,9.74
2022-10-07T05:31:12.287Z,9.72
2022-10-07T05:36:13.803Z,9.97
2022-10-07T05:41:15.231Z,9.73
2022-10-07T05:46:18.929Z,10.08
2022-10-07T05:51:22.576Z,10.06
2022-10-07T05:56:24.172Z,9.35
2022-10-07T06:01:25.663Z,9.55
2022-10-07T06:06:27.187Z,9.58
2022-10-07T06:11:48.775Z,9.67
2022-10-07T06:16:50.256Z,10.06
2022-10-07T06:21:51.788Z,9.90
2022-10-07T06:26:53.191Z,9.86
2022-10-07T06:31:54.589Z,9.30
2022-10-07T06:36:56.070Z,8.84
2022-10-07T06:41:57.418Z,9.59
2022-10-07T06:46:58.849Z,9.55
2022-10-07T06:52:00.361Z,9.72
2022-10-07T06:57:01.848Z,9.31
2022-10-07T07:02:03.437Z,9.56
2022-10-07T07:07:05.271Z,9.60
2022-10-07T07:12:06.649Z,10.07
2022-10-07T07:17:09.774Z,9.11
2022-10-07T07:22:11.434Z,9.70
2022-10-07T07:27:12.788Z,10.12
2022-10-07T07:32:14.219Z,10.49
2022-10-07T07:37:17.098Z,10.39
2022-10-07T07:42:18.957Z,10.11
2022-10-07T07:47:20.506Z,10.13
2022-10-07T07:52:21.962Z,10.52
2022-10-07T07:57:23.497Z,10.54
2022-10-07T08:02:24.931Z,10.57
2022-10-07T08:07:26.317Z,10.68
2022-10-07T08:12:27.770Z,10.70
2022-10-07T08:17:29.187Z,10.06
2022-10-07T08:22:30.577Z,10.52
2022-10-07T08:27:32.372Z,10.01
2022-10-07T08:32:33.947Z,10.85
2022-10-07T08:37:35.355Z,10.31
2022-10-07T08:42:40.158Z,10.71
2022-10-07T08:47:46.974Z,11.11
2022-10-07T08:52:59.017Z,11.08
2022-10-07T08:58:28.375Z,11.17
2022-10-07T09:03:45.543Z,11.39
2022-10-07T09:08:55.094Z,11.43
2022-10-07T09:14:19.407Z,11.74
2022-10-07T09:19:48.327Z,12.19
2022-10-07T09:24:58.682Z,12.22
2022-10-07T09:30:00.181Z,12.31
2022-10-07T09:35:01.629Z,12.53
2022-10-07T09:40:22.675Z,12.67
2022-10-07T09:45:33.475Z,12.73
2022-10-07T09:50:42.640Z,12.85
2022-10-07T09:55:44.166Z,13.18
2022-10-07T10:00:57.196Z,13.11
2022-10-07T10:06:01.190Z,13.28
2022-10-07T10:11:04.408Z,13.44
2022-10-07T10:16:27.004Z,13.52
2022-10-07T10:21:39.261Z,13.47
2022-10-07T10:26:55.788Z,13.61
2022-10-07T10:32:45.239Z,13.70
2022-10-07T10:37:55.783Z,13.69
2022-10-07T10:43:15.844Z,13.85
2022-10-07T10:48:26.162Z,13.82
2022-10-07T10:54:10.388Z,13.80
2022-10-07T10:59:44.047Z,14.05
2022-10-07T11:04:57.926Z,13.90
2022-10-07T11:10:05.324Z,14.19
2022-10-07T11:15:22.995Z,14.23
2022-10-07T11:20:35.499Z,13.78
2022-10-07T11:25:43.085Z,13.92
2022-10-07T11:30:57.799Z,13.81
2022-10-07T11:36:12.789Z,13.80
2022-10-07T11:41:14.123Z,13.98
2022-10-07T11:46:25.380Z,14.04
2022-10-07T11:51:34.936Z,13.94
2022-10-07T11:56:46.583Z,13.99
2022-10-07T12:01:51.041Z,14.36
2022-10-07T12:07:30.222Z,14.06
2022-10-07T12:12:43.935Z,14.10
2022-10-07T12:17:54.543Z,13.91
2022-10-07T12:23:25.012Z,13.84
2022-10-07T12:28:31.936Z,13.85
2022-10-07T12:33:46.551Z,14.05
2022-10-07T12:38:57.063Z,13.96
2022-10-07T12:44:14.781Z,13.95
2022-10-07T12:49:31.093Z,13.88
2022-10-07T12:54:50.574Z,14.03
2022-10-07T12:59:54.621Z,14.89
2022-10-07T13:05:26.931Z,14.59
2022-10-07T13:10:56.365Z,14.54
2022-10-07T13:16:56.501Z,14.31
2022-10-07T13:22:15.273Z,14.16
2022-10-07T13:27:20.240Z,14.17
2022-10-07T13:32:27.542Z,14.29
2022-10-07T13:37:36.320Z,14.46
2022-10-07T13:42:38.213Z,14.32
2022-10-07T13:47:41.243Z,14.24
2022-10-07T13:52:48.622Z,14.35
2022-10-07T13:57:50.266Z,14.38
2022-10-07T14:02:52.263Z,14.33
2022-10-07T14:07:59.030Z,14.27
2022-10-07T14:13:03.166Z,14.52
2022-10-07T14:18:04.495Z,14.31
2022-10-07T14:23:27.680Z,14.24
2022-10-07T14:28:32.039Z,14.19
2022-10-07T14:34:10.623Z,14.13
2022-10-07T14:39:32.480Z,14.11
2022-10-07T14:44:33.930Z,14.12
2022-10-07T14:49:35.312Z,14.07
2022-10-07T14:54:36.717Z,14.08
2022-10-07T14:59:38.108Z,14.06
2022-10-07T15:04:39.553Z,14.10
2022-10-07T15:09:42.507Z,14.10
2022-10-07T15:14:44.049Z,14.06
2022-10-07T15:19:45.410Z,14.06
2022-10-07T15:24:46.785Z,14.04
2022-10-07T15:29:48.401Z,14.04
2022-10-07T15:34:50.930Z,14.07
2022-10-07T15:39:52.295Z,14.09
2022-10-07T15:44:53.827Z,14.06
2022-10-07T15:49:55.215Z,14.04
2022-10-07T15:54:56.603Z,14.03
2022-10-07T15:59:57.941Z,14.00
2022-10-07T16:04:59.296Z,13.99
2022-10-07T16:10:00.691Z,13.97
2022-10-07T16:15:02.132Z,13.96
2022-10-07T16:20:07.674Z,13.97
2022-10-07T16:25:11.861Z,13.95
2022-10-07T16:30:13.436Z,13.96
2022-10-07T16:35:17.586Z,13.96
2022-10-07T16:40:18.947Z,14.02
2022-10-07T16:45:21.809Z,13.97
2022-10-07T16:50:23.305Z,14.06
2022-10-07T16:55:24.730Z,14.02
2022-10-07T17:00:26.125Z,14.14
2022-10-07T17:05:27.601Z,14.12
2022-10-07T17:10:29.037Z,14.12
2022-10-07T17:15:30.502Z,14.20
2022-10-07T17:20:31.900Z,14.19
2022-10-07T17:25:37.356Z,14.11
2022-10-07T17:30:38.774Z,14.09
2022-10-07T17:35:40.179Z,14.16
2022-10-07T17:40:41.522Z,14.10
2022-10-07T17:45:42.935Z,14.16
2022-10-07T17:50:44.277Z,14.15
2022-10-07T17:55:52.207Z,14.02
2022-10-07T18:00:53.603Z,14.05
2022-10-07T18:05:55.088Z,14.05
2022-10-07T18:10:56.502Z,14.01
2022-10-07T18:16:02.286Z,13.88
2022-10-07T18:21:08.376Z,13.78
2022-10-07T18:26:11.630Z,13.87
2022-10-07T18:31:14.787Z,13.85
2022-10-07T18:36:17.657Z,13.89
2022-10-07T18:41:39.322Z,13.80
2022-10-07T18:46:40.747Z,13.77
2022-10-07T18:51:42.831Z,13.76
2022-10-07T18:56:46.499Z,13.72
2022-10-07T19:01:50.626Z,13.75
2022-10-07T19:06:52.675Z,13.68
2022-10-07T19:11:54.064Z,13.59
2022-10-07T19:16:55.437Z,13.60
2022-10-07T19:21:56.797Z,13.65
2022-10-07T19:26:58.191Z,13.49
2022-10-07T19:32:02.299Z,13.49
2022-10-07T19:37:05.870Z,13.55
2022-10-07T19:42:07.277Z,13.46
2022-10-07T19:47:08.693Z,13.35
2022-10-07T19:52:10.054Z,13.41
2022-10-07T19:57:11.598Z,13.35
2022-10-07T20:02:13.244Z,13.50
2022-10-07T20:07:14.826Z,13.50
2022-10-07T20:12:16.385Z,13.49
2022-10-07T20:17:17.942Z,13.52
2022-10-07T20:22:19.685Z,13.48
2022-10-07T20:27:21.112Z,13.39
2022-10-07T20:32:23.867Z,13.42
2022-10-07T20:37:26.003Z,13.46
2022-10-07T20:42:28.291Z,13.39
2022-10-07T20:47:32.385Z,13.40
2022-10-07T20:52:36.033Z,13.35
2022-10-07T20:57:37.437Z,13.24
2022-10-07T21:02:38.828Z,13.06
2022-10-07T21:07:40.218Z,13.25
2022-10-07T21:12:41.591Z,13.27
2022-10-07T21:17:44.394Z,13.26
2022-10-07T21:22:45.912Z,13.25
2022-10-07T21:27:47.534Z,13.20
2022-10-07T21:32:49.153Z,13.14
2022-10-07T21:37:50.750Z,13.18
2022-10-07T21:42:52.125Z,13.24
2022-10-07T21:47:53.621Z,13.21
2022-10-07T21:52:55.030Z,12.91
2022-10-07T21:57:56.393Z,13.06
2022-10-07T22:02:57.860Z,12.91
2022-10-07T22:07:59.264Z,12.91
2022-10-07T22:13:00.632Z,12.97
2022-10-07T22:18:02.409Z,12.83
2022-10-07T22:23:03.807Z,12.96
2022-10-07T22:28:05.214Z,12.89
2022-10-07T22:33:06.896Z,12.73
2022-10-07T22:38:08.244Z,12.76
2022-10-07T22:43:09.643Z,12.72
2022-10-07T22:48:11.035Z,12.64
2022-10-07T22:53:12.388Z,12.71
2022-10-07T22:58:13.752Z,12.86
2022-10-07T23:03:15.631Z,12.76
2022-10-07T23:08:17.151Z,12.64
2022-10-07T23:13:18.515Z,12.74
2022-10-07T23:18:19.939Z,12.49
2022-10-07T23:23:21.296Z,12.60
2022-10-07T23:28:23.587Z,12.74
2022-10-07T23:33:24.977Z,12.56
2022-10-07T23:38:27.384Z,12.60
2022-10-07T23:43:28.776Z,12.63
2022-10-07T23:48:30.296Z,12.51
2022-10-07T23:53:33.249Z,12.65
2022-10-07T23:58:35.520Z,12.21
